Hlavní strana
METAR-TAF:

METAR-TAF

Letiště :

Bangui, Středoafrická republika

zeměpisná šířka: 04-24N, zeměpisná délka: 018-31E, výška: 365 m

Aktuální stav počasí

Zpráva byla vytvořena před 53 minutami, v 12:00 UTC
Jižní vítr 4 kt
Teplota 27°C
Vlhkost vzduchu 79%
Tlak 1012 hPa
Viditelnost 10 km a více
Polojasno ve výšce 1300 ft
Skoro jasno ve výšce 3300 ft, Cumulonimbus.

METAR: FEFF 261200Z 18004KT 9999 SCT013 FEW033CB 27/23 Q1012 NOSIG

Čas: 13:53 (12:53 UTC)

Předpověď počasí

Zpráva byla vytvořena před 1 hodinou a 53 minutami, v 11:00 UTC
Předpověď platná od 26 v 12 UTC do 27 v 18 UTC
Západojihozápadní vítr 6 kt
Viditelnost 10 km a více
Skoro jasno ve výšce 1000 ft
Skoro jasno ve výšce 4000 ft, Cumulonimbus.
Dočasný
mezi RA a UTC
Změna
od 26 v 18 UTC do 26 v 20 UTC
vítr z různých směrů 3 kt
Viditelnost: 8000 m
Polojasno ve výšce 1000 ft

TAF: FEFF 261100Z 2612/2718 24006KT 9999 FEW010 FEW040CB TEMPO RA BECMG 2618/2620 VRB03KT 8000 SCT010

Stav a předpovědi počasí z více než 4 000 letišť (zprávy METAR a TAF).

Červené a žluté tečky na mapě představují dostupné meteorologické stanice.

Když kurzor umístíte na tečku, zobrazí se název stanice.

Pak kliknutím zobrazíte stav a předpověď počasí.

Chcete-li změnit mapu, kliknutím na zelené tlačítko se znaménkem +mapu přiblížíte, kliknutím na zelené tlačítko se znaménkem – mapu oddálíte a kliknutím na zelené šipky přejdete na sousední mapy.


METAR-TAF: